BAW320X EGLL-EHAM
Flight info
| Callsign | BAW320X |
|---|---|
| Flight time | 0h 49m |
| Altitude | 23000 |
| Route | BPK Q295 BRAIN M197 REDFA |
| Aircraft | A333/H-SDE3GHIJ2J3J5M1RVWXY/LB2D1 |
Departure
| Time | 2026-04-30 11:15 |
|---|---|
| Airport | London Heathrow Airport (EGLL) |
Arrival
| Time | 2026-04-30 12:04 |
|---|---|
| Airport | Amsterdam Airport Schiphol (EHAM) |
| Time | Latitude | Longitude | Altitude | Speed | Heading |
|---|---|---|---|---|---|
| 2026-04-30 10:33 | 51.47319 | -0.47502 | 97 ft | 0 kts | 271° |
| 2026-04-30 10:59 | 51.47319 | -0.47493 | 97 ft | 3 kts | 271° |
| 2026-04-30 10:59 | 51.47319 | -0.47463 | 95 ft | 3 kts | 271° |
| 2026-04-30 10:59 | 51.47319 | -0.47431 | 95 ft | 3 kts | 248° |
| 2026-04-30 11:00 | 51.47325 | -0.47402 | 97 ft | 3 kts | 250° |
| 2026-04-30 11:00 | 51.47337 | -0.47375 | 93 ft | 3 kts | 202° |
| 2026-04-30 11:00 | 51.47348 | -0.47370 | 96 ft | 0 kts | 180° |
| 2026-04-30 11:04 | 51.47273 | -0.47358 | 98 ft | 10 kts | 174° |
| 2026-04-30 11:04 | 51.47195 | -0.47356 | 95 ft | 13 kts | 180° |
| 2026-04-30 11:04 | 51.47098 | -0.47354 | 94 ft | 15 kts | 179° |
| 2026-04-30 11:04 | 51.46997 | -0.47353 | 94 ft | 14 kts | 179° |
| 2026-04-30 11:05 | 51.46907 | -0.47352 | 94 ft | 14 kts | 180° |
| 2026-04-30 11:05 | 51.46868 | -0.47352 | 91 ft | 0 kts | 180° |
| 2026-04-30 11:06 | 51.46867 | -0.47352 | 91 ft | 2 kts | 180° |
| 2026-04-30 11:06 | 51.46834 | -0.47352 | 91 ft | 6 kts | 180° |
| 2026-04-30 11:07 | 51.46790 | -0.47351 | 95 ft | 7 kts | 179° |
| 2026-04-30 11:07 | 51.46737 | -0.47350 | 91 ft | 8 kts | 179° |
| 2026-04-30 11:07 | 51.46680 | -0.47371 | 94 ft | 9 kts | 214° |
| 2026-04-30 11:07 | 51.46656 | -0.47472 | 92 ft | 11 kts | 268° |
| 2026-04-30 11:08 | 51.46656 | -0.47606 | 94 ft | 13 kts | 269° |
| 2026-04-30 11:08 | 51.46654 | -0.47751 | 94 ft | 13 kts | 269° |
| 2026-04-30 11:08 | 51.46654 | -0.47902 | 92 ft | 13 kts | 269° |
| 2026-04-30 11:08 | 51.46653 | -0.48047 | 95 ft | 12 kts | 270° |
| 2026-04-30 11:09 | 51.46653 | -0.48056 | 99 ft | 0 kts | 270° |
| 2026-04-30 11:11 | 51.46653 | -0.48058 | 99 ft | 1 kts | 270° |
| 2026-04-30 11:11 | 51.46653 | -0.48099 | 98 ft | 5 kts | 270° |
| 2026-04-30 11:11 | 51.46651 | -0.48154 | 96 ft | 5 kts | 261° |
| 2026-04-30 11:12 | 51.46642 | -0.48190 | 99 ft | 3 kts | 235° |
| 2026-04-30 11:12 | 51.46625 | -0.48205 | 100 ft | 3 kts | 201° |
| 2026-04-30 11:12 | 51.46580 | -0.48214 | 98 ft | 9 kts | 183° |
| 2026-04-30 11:12 | 51.46531 | -0.48215 | 97 ft | 5 kts | 179° |
| 2026-04-30 11:13 | 51.46498 | -0.48208 | 98 ft | 5 kts | 162° |
| 2026-04-30 11:13 | 51.46487 | -0.48188 | 99 ft | 3 kts | 119° |
| 2026-04-30 11:13 | 51.46481 | -0.48140 | 100 ft | 6 kts | 96° |
| 2026-04-30 11:13 | 51.46479 | -0.48092 | 96 ft | 0 kts | 91° |
| 2026-04-30 11:14 | 51.46479 | -0.48091 | 95 ft | 1 kts | 91° |
| 2026-04-30 11:14 | 51.46480 | -0.47833 | 93 ft | 56 kts | 89° |
| 2026-04-30 11:14 | 51.46483 | -0.46873 | 100 ft | 114 kts | 89° |
| 2026-04-30 11:15 | 51.46475 | -0.45384 | 319 ft | 145 kts | 91° |
| 2026-04-30 11:15 | 51.46457 | -0.43786 | 1145 ft | 141 kts | 92° |
| 2026-04-30 11:15 | 51.46492 | -0.42224 | 1921 ft | 142 kts | 79° |
| 2026-04-30 11:15 | 51.46990 | -0.40735 | 2250 ft | 167 kts | 56° |
| 2026-04-30 11:16 | 51.47838 | -0.39246 | 2513 ft | 195 kts | 51° |
| 2026-04-30 11:16 | 51.48862 | -0.37564 | 2737 ft | 225 kts | 51° |
| 2026-04-30 11:16 | 51.50001 | -0.35654 | 3179 ft | 245 kts | 52° |
| 2026-04-30 11:16 | 51.51180 | -0.33630 | 3985 ft | 249 kts | 56° |
| 2026-04-30 11:17 | 51.51992 | -0.31222 | 4810 ft | 246 kts | 74° |
| 2026-04-30 11:17 | 51.52602 | -0.28621 | 5626 ft | 252 kts | 76° |
| 2026-04-30 11:17 | 51.53181 | -0.25920 | 6410 ft | 260 kts | 76° |
| 2026-04-30 11:17 | 51.53872 | -0.23186 | 7205 ft | 271 kts | 65° |
| 2026-04-30 11:18 | 51.55148 | -0.20895 | 8083 ft | 285 kts | 39° |
| 2026-04-30 11:18 | 51.58810 | -0.18172 | 9998 ft | 296 kts | 23° |
| 2026-04-30 11:18 | 51.60803 | -0.17188 | 10714 ft | 306 kts | 20° |
| 2026-04-30 11:19 | 51.62926 | -0.16219 | 11058 ft | 329 kts | 19° |
| 2026-04-30 11:19 | 51.65201 | -0.15184 | 11369 ft | 350 kts | 19° |
| 2026-04-30 11:19 | 51.67593 | -0.14088 | 11830 ft | 363 kts | 19° |
| 2026-04-30 11:19 | 51.70037 | -0.12952 | 12518 ft | 368 kts | 21° |
| 2026-04-30 11:20 | 51.72377 | -0.11300 | 13256 ft | 366 kts | 36° |
| 2026-04-30 11:20 | 51.74239 | -0.08568 | 13964 ft | 362 kts | 57° |
| 2026-04-30 11:20 | 51.75374 | -0.04984 | 14601 ft | 360 kts | 76° |
| 2026-04-30 11:20 | 51.75984 | -0.01067 | 15205 ft | 361 kts | 82° |
| 2026-04-30 11:21 | 51.76382 | 0.02964 | 15803 ft | 364 kts | 85° |
| 2026-04-30 11:21 | 51.76675 | 0.07033 | 16431 ft | 367 kts | 86° |
| 2026-04-30 11:21 | 51.76938 | 0.11148 | 17050 ft | 371 kts | 87° |
| 2026-04-30 11:21 | 51.77211 | 0.15318 | 17659 ft | 375 kts | 86° |
| 2026-04-30 11:22 | 51.77507 | 0.19520 | 18267 ft | 378 kts | 86° |
| 2026-04-30 11:22 | 51.77824 | 0.23756 | 18824 ft | 382 kts | 86° |
| 2026-04-30 11:22 | 51.78159 | 0.28023 | 19353 ft | 385 kts | 86° |
| 2026-04-30 11:22 | 51.78504 | 0.32326 | 19924 ft | 387 kts | 85° |
| 2026-04-30 11:23 | 51.78853 | 0.36637 | 20472 ft | 388 kts | 85° |
| 2026-04-30 11:23 | 51.79204 | 0.40979 | 21007 ft | 391 kts | 85° |
| 2026-04-30 11:23 | 51.79903 | 0.49726 | 22028 ft | 395 kts | 85° |
| 2026-04-30 11:24 | 51.80252 | 0.54144 | 22488 ft | 398 kts | 85° |
| 2026-04-30 11:24 | 51.80601 | 0.58596 | 22987 ft | 401 kts | 85° |
| 2026-04-30 11:24 | 51.80963 | 0.63073 | 23239 ft | 404 kts | 83° |
| 2026-04-30 11:25 | 51.82170 | 0.72187 | 23266 ft | 421 kts | 79° |
| 2026-04-30 11:25 | 51.82863 | 0.76797 | 23269 ft | 422 kts | 79° |
| 2026-04-30 11:25 | 51.84367 | 0.85944 | 23279 ft | 422 kts | 77° |
| 2026-04-30 11:26 | 51.86053 | 0.95053 | 23281 ft | 422 kts | 76° |
| 2026-04-30 11:26 | 51.86901 | 0.99593 | 23285 ft | 422 kts | 76° |
| 2026-04-30 11:26 | 51.87746 | 1.04150 | 23288 ft | 422 kts | 76° |
| 2026-04-30 11:27 | 51.88581 | 1.08703 | 23284 ft | 422 kts | 76° |
| 2026-04-30 11:27 | 51.89409 | 1.13264 | 23282 ft | 422 kts | 76° |
| 2026-04-30 11:27 | 51.90231 | 1.17827 | 23301 ft | 422 kts | 76° |
| 2026-04-30 11:27 | 51.91052 | 1.22399 | 23296 ft | 422 kts | 76° |
| 2026-04-30 11:28 | 51.92672 | 1.31476 | 23303 ft | 422 kts | 76° |
| 2026-04-30 11:28 | 51.93485 | 1.36044 | 23298 ft | 422 kts | 76° |
| 2026-04-30 11:28 | 51.94298 | 1.40627 | 23308 ft | 422 kts | 76° |
| 2026-04-30 11:29 | 51.95107 | 1.45196 | 23309 ft | 422 kts | 76° |
| 2026-04-30 11:29 | 51.95915 | 1.49769 | 23306 ft | 422 kts | 76° |
| 2026-04-30 11:29 | 51.97528 | 1.58932 | 23308 ft | 422 kts | 76° |
| 2026-04-30 11:30 | 51.99124 | 1.68088 | 23315 ft | 422 kts | 77° |
| 2026-04-30 11:30 | 51.99863 | 1.72702 | 23315 ft | 422 kts | 78° |
| 2026-04-30 11:30 | 52.00581 | 1.77313 | 23322 ft | 422 kts | 78° |
| 2026-04-30 11:31 | 52.01296 | 1.81931 | 23327 ft | 422 kts | 78° |
| 2026-04-30 11:31 | 52.02010 | 1.86548 | 23326 ft | 422 kts | 78° |
| 2026-04-30 11:31 | 52.02722 | 1.91163 | 23323 ft | 422 kts | 78° |
| 2026-04-30 11:31 | 52.03434 | 1.95782 | 23313 ft | 422 kts | 78° |
| 2026-04-30 11:32 | 52.04144 | 2.00403 | 23328 ft | 422 kts | 77° |
| 2026-04-30 11:32 | 52.04852 | 2.05018 | 23331 ft | 421 kts | 77° |
| 2026-04-30 11:32 | 52.05558 | 2.09638 | 23331 ft | 421 kts | 77° |
| 2026-04-30 11:33 | 52.06965 | 2.18875 | 23330 ft | 421 kts | 77° |
| 2026-04-30 11:33 | 52.07665 | 2.23493 | 23332 ft | 421 kts | 78° |
| 2026-04-30 11:33 | 52.08363 | 2.28113 | 23338 ft | 421 kts | 78° |
| 2026-04-30 11:33 | 52.09061 | 2.32743 | 23334 ft | 421 kts | 78° |
| 2026-04-30 11:34 | 52.09756 | 2.37365 | 23330 ft | 421 kts | 78° |
| 2026-04-30 11:34 | 52.10449 | 2.41989 | 23332 ft | 421 kts | 78° |
| 2026-04-30 11:34 | 52.11171 | 2.46605 | 23326 ft | 422 kts | 75° |
| 2026-04-30 11:34 | 52.12299 | 2.51019 | 23332 ft | 423 kts | 64° |
| 2026-04-30 11:35 | 52.13742 | 2.55185 | 23329 ft | 424 kts | 61° |
| 2026-04-30 11:35 | 52.15249 | 2.59316 | 23338 ft | 424 kts | 61° |
| 2026-04-30 11:35 | 52.16756 | 2.63435 | 23287 ft | 421 kts | 61° |
| 2026-04-30 11:35 | 52.18228 | 2.67474 | 23058 ft | 408 kts | 61° |
| 2026-04-30 11:36 | 52.19644 | 2.71376 | 23000 ft | 392 kts | 62° |
| 2026-04-30 11:36 | 52.21005 | 2.75138 | 22939 ft | 378 kts | 62° |
| 2026-04-30 11:36 | 52.22333 | 2.78825 | 22543 ft | 378 kts | 62° |
| 2026-04-30 11:36 | 52.23659 | 2.82519 | 22060 ft | 378 kts | 62° |
| 2026-04-30 11:37 | 52.24983 | 2.86213 | 21609 ft | 376 kts | 62° |
| 2026-04-30 11:37 | 52.26301 | 2.89889 | 21148 ft | 373 kts | 62° |
| 2026-04-30 11:37 | 52.27587 | 2.93484 | 20729 ft | 370 kts | 62° |
| 2026-04-30 11:37 | 52.28880 | 2.97105 | 20283 ft | 368 kts | 62° |
| 2026-04-30 11:38 | 52.30164 | 3.00705 | 19850 ft | 365 kts | 62° |
| 2026-04-30 11:38 | 52.31437 | 3.04276 | 19413 ft | 362 kts | 62° |
| 2026-04-30 11:38 | 52.32696 | 3.07817 | 18980 ft | 359 kts | 63° |
| 2026-04-30 11:38 | 52.33946 | 3.11335 | 18538 ft | 356 kts | 63° |
| 2026-04-30 11:39 | 52.35185 | 3.14828 | 18062 ft | 354 kts | 63° |
| 2026-04-30 11:39 | 52.36413 | 3.18296 | 17644 ft | 351 kts | 63° |
| 2026-04-30 11:39 | 52.37632 | 3.21743 | 17216 ft | 349 kts | 63° |
| 2026-04-30 11:39 | 52.38844 | 3.25175 | 16804 ft | 347 kts | 63° |
| 2026-04-30 11:40 | 52.40035 | 3.28548 | 16599 ft | 337 kts | 63° |
| 2026-04-30 11:40 | 52.41186 | 3.31809 | 16435 ft | 325 kts | 63° |
| 2026-04-30 11:40 | 52.42291 | 3.34943 | 16193 ft | 310 kts | 63° |
| 2026-04-30 11:40 | 52.43347 | 3.37946 | 15675 ft | 301 kts | 63° |
| 2026-04-30 11:41 | 52.44356 | 3.40940 | 15089 ft | 299 kts | 67° |
| 2026-04-30 11:41 | 52.45077 | 3.44121 | 14572 ft | 299 kts | 77° |
| 2026-04-30 11:41 | 52.45585 | 3.47397 | 14172 ft | 294 kts | 79° |
| 2026-04-30 11:41 | 52.46046 | 3.50625 | 13707 ft | 286 kts | 79° |
| 2026-04-30 11:42 | 52.46494 | 3.53798 | 13344 ft | 286 kts | 79° |
| 2026-04-30 11:42 | 52.46943 | 3.56974 | 13024 ft | 285 kts | 79° |
| 2026-04-30 11:42 | 52.47385 | 3.60076 | 12851 ft | 275 kts | 79° |
| 2026-04-30 11:42 | 52.47816 | 3.63108 | 12508 ft | 273 kts | 79° |
| 2026-04-30 11:43 | 52.48245 | 3.66132 | 12155 ft | 271 kts | 79° |
| 2026-04-30 11:43 | 52.48666 | 3.69087 | 11991 ft | 260 kts | 79° |
| 2026-04-30 11:43 | 52.49069 | 3.71920 | 11685 ft | 251 kts | 80° |
| 2026-04-30 11:43 | 52.49464 | 3.74711 | 11251 ft | 251 kts | 80° |
| 2026-04-30 11:44 | 52.49856 | 3.77493 | 10946 ft | 250 kts | 80° |
| 2026-04-30 11:44 | 52.50245 | 3.80255 | 10667 ft | 248 kts | 80° |
| 2026-04-30 11:44 | 52.50631 | 3.82998 | 10421 ft | 245 kts | 81° |
| 2026-04-30 11:44 | 52.51014 | 3.85725 | 10369 ft | 245 kts | 81° |
| 2026-04-30 11:45 | 52.51397 | 3.88458 | 10367 ft | 246 kts | 81° |
| 2026-04-30 11:45 | 52.51781 | 3.91196 | 10364 ft | 246 kts | 81° |
| 2026-04-30 11:45 | 52.52163 | 3.93927 | 10364 ft | 245 kts | 81° |
| 2026-04-30 11:45 | 52.52529 | 3.96663 | 10365 ft | 245 kts | 84° |
| 2026-04-30 11:46 | 52.52560 | 3.99420 | 10361 ft | 241 kts | 101° |
| 2026-04-30 11:46 | 52.51945 | 4.01946 | 10363 ft | 240 kts | 123° |
| 2026-04-30 11:46 | 52.50721 | 4.03822 | 10365 ft | 245 kts | 147° |
| 2026-04-30 11:46 | 52.49082 | 4.04665 | 10365 ft | 254 kts | 171° |
| 2026-04-30 11:47 | 52.47311 | 4.04210 | 10359 ft | 266 kts | 197° |
| 2026-04-30 11:47 | 52.45799 | 4.02386 | 10361 ft | 279 kts | 226° |
| 2026-04-30 11:47 | 52.44918 | 3.99522 | 10368 ft | 287 kts | 249° |
| 2026-04-30 11:47 | 52.44411 | 3.96345 | 10367 ft | 289 kts | 253° |
| 2026-04-30 11:48 | 52.43932 | 3.93140 | 10360 ft | 289 kts | 252° |
| 2026-04-30 11:48 | 52.43437 | 3.89940 | 10363 ft | 289 kts | 252° |
| 2026-04-30 11:48 | 52.43077 | 3.86693 | 10360 ft | 292 kts | 267° |
| 2026-04-30 11:48 | 52.43519 | 3.83468 | 10362 ft | 293 kts | 300° |
| 2026-04-30 11:49 | 52.44893 | 3.81103 | 10365 ft | 286 kts | 334° |
| 2026-04-30 11:49 | 52.46744 | 3.80177 | 10353 ft | 276 kts | 3° |
| 2026-04-30 11:49 | 52.48577 | 3.80723 | 10360 ft | 264 kts | 31° |
| 2026-04-30 11:49 | 52.49985 | 3.82454 | 10362 ft | 253 kts | 56° |
| 2026-04-30 11:50 | 52.50789 | 3.84943 | 10365 ft | 246 kts | 76° |
| 2026-04-30 11:50 | 52.51249 | 3.87634 | 10363 ft | 246 kts | 79° |
| 2026-04-30 11:50 | 52.51686 | 3.90352 | 10365 ft | 246 kts | 79° |
| 2026-04-30 11:50 | 52.52126 | 3.93075 | 10338 ft | 246 kts | 79° |
| 2026-04-30 11:51 | 52.52566 | 3.95788 | 10324 ft | 246 kts | 79° |
| 2026-04-30 11:51 | 52.53005 | 3.98505 | 10324 ft | 246 kts | 79° |
| 2026-04-30 11:51 | 52.53518 | 4.01196 | 10180 ft | 250 kts | 66° |
| 2026-04-30 11:51 | 52.54544 | 4.03529 | 9848 ft | 251 kts | 59° |
| 2026-04-30 11:52 | 52.55307 | 4.06044 | 9535 ft | 245 kts | 70° |
| 2026-04-30 11:52 | 52.55799 | 4.08700 | 9178 ft | 246 kts | 92° |
| 2026-04-30 11:52 | 52.55296 | 4.11391 | 8950 ft | 255 kts | 125° |
| 2026-04-30 11:52 | 52.54059 | 4.13517 | 8754 ft | 259 kts | 135° |
| 2026-04-30 11:53 | 52.52769 | 4.15594 | 8537 ft | 259 kts | 132° |
| 2026-04-30 11:53 | 52.51569 | 4.17781 | 8315 ft | 257 kts | 129° |
| 2026-04-30 11:53 | 52.50444 | 4.20056 | 8086 ft | 256 kts | 127° |
| 2026-04-30 11:53 | 52.49367 | 4.22378 | 7863 ft | 255 kts | 126° |
| 2026-04-30 11:54 | 52.48321 | 4.24720 | 7651 ft | 255 kts | 125° |
| 2026-04-30 11:54 | 52.47288 | 4.27080 | 7435 ft | 254 kts | 125° |
| 2026-04-30 11:54 | 52.46269 | 4.29430 | 7203 ft | 253 kts | 125° |
| 2026-04-30 11:54 | 52.45226 | 4.31852 | 7062 ft | 275 kts | 125° |
| 2026-04-30 11:55 | 52.44083 | 4.34512 | 7204 ft | 288 kts | 125° |
| 2026-04-30 11:55 | 52.42812 | 4.36999 | 7170 ft | 281 kts | 138° |
| 2026-04-30 11:55 | 52.41108 | 4.38397 | 7030 ft | 275 kts | 166° |
| 2026-04-30 11:55 | 52.39223 | 4.38516 | 6861 ft | 268 kts | 179° |
| 2026-04-30 11:56 | 52.37393 | 4.38280 | 6744 ft | 259 kts | 180° |
| 2026-04-30 11:56 | 52.35628 | 4.38014 | 6523 ft | 252 kts | 180° |
| 2026-04-30 11:56 | 52.33890 | 4.37763 | 6213 ft | 249 kts | 180° |
| 2026-04-30 11:56 | 52.32165 | 4.37527 | 5876 ft | 248 kts | 179° |
| 2026-04-30 11:57 | 52.30451 | 4.37301 | 5549 ft | 246 kts | 179° |
| 2026-04-30 11:57 | 52.28752 | 4.37080 | 5225 ft | 244 kts | 179° |
| 2026-04-30 11:57 | 52.27077 | 4.36864 | 5027 ft | 237 kts | 179° |
| 2026-04-30 11:57 | 52.25481 | 4.36744 | 4906 ft | 222 kts | 171° |
| 2026-04-30 11:58 | 52.24512 | 4.37051 | 4789 ft | 208 kts | 155° |
| 2026-04-30 11:58 | 52.23086 | 4.38837 | 4404 ft | 193 kts | 125° |
| 2026-04-30 11:58 | 52.22442 | 4.40728 | 4116 ft | 190 kts | 117° |
| 2026-04-30 11:58 | 52.21890 | 4.42678 | 3803 ft | 189 kts | 116° |
| 2026-04-30 11:59 | 52.21355 | 4.44612 | 3510 ft | 186 kts | 115° |
| 2026-04-30 11:59 | 52.21049 | 4.45945 | 3306 ft | 186 kts | 108° |
| 2026-04-30 11:59 | 52.20867 | 4.48006 | 3102 ft | 182 kts | 98° |
| 2026-04-30 11:59 | 52.20818 | 4.50053 | 2830 ft | 181 kts | 96° |
| 2026-04-30 12:00 | 52.20866 | 4.52119 | 2529 ft | 184 kts | 84° |
| 2026-04-30 12:00 | 52.21297 | 4.54066 | 2284 ft | 182 kts | 69° |
| 2026-04-30 12:00 | 52.21920 | 4.55794 | 2091 ft | 169 kts | 63° |
| 2026-04-30 12:00 | 52.22522 | 4.57339 | 1987 ft | 152 kts | 63° |
| 2026-04-30 12:01 | 52.23046 | 4.58666 | 1986 ft | 126 kts | 63° |
| 2026-04-30 12:01 | 52.23492 | 4.59818 | 1988 ft | 117 kts | 65° |
| 2026-04-30 12:01 | 52.23920 | 4.60956 | 1874 ft | 119 kts | 65° |
| 2026-04-30 12:01 | 52.24360 | 4.62103 | 1706 ft | 119 kts | 65° |
| 2026-04-30 12:02 | 52.24805 | 4.63239 | 1533 ft | 119 kts | 63° |
| 2026-04-30 12:02 | 52.25242 | 4.64362 | 1366 ft | 118 kts | 63° |
| 2026-04-30 12:02 | 52.25687 | 4.65505 | 1211 ft | 118 kts | 63° |
| 2026-04-30 12:02 | 52.26125 | 4.66627 | 1037 ft | 119 kts | 64° |
| 2026-04-30 12:03 | 52.26574 | 4.67766 | 863 ft | 119 kts | 64° |
| 2026-04-30 12:03 | 52.27458 | 4.70005 | 562 ft | 119 kts | 63° |
| 2026-04-30 12:03 | 52.27912 | 4.71148 | 411 ft | 120 kts | 61° |
| 2026-04-30 12:04 | 52.28367 | 4.72294 | 258 ft | 120 kts | 64° |
| 2026-04-30 12:04 | 52.28813 | 4.73461 | 84 ft | 118 kts | 62° |
| 2026-04-30 12:04 | 52.29228 | 4.74561 | 29 ft | 106 kts | 61° |
| 2026-04-30 12:04 | 52.29520 | 4.75308 | 19 ft | 49 kts | 57° |
| 2026-04-30 12:05 | 52.29627 | 4.75585 | 24 ft | 24 kts | 58° |
| 2026-04-30 12:05 | 52.29776 | 4.75797 | 19 ft | 33 kts | 28° |
| 2026-04-30 12:05 | 52.29921 | 4.75920 | 16 ft | 15 kts | 28° |
| 2026-04-30 12:05 | 52.30004 | 4.76025 | 16 ft | 16 kts | 52° |
| 2026-04-30 12:06 | 52.30066 | 4.76182 | 15 ft | 17 kts | 58° |
| 2026-04-30 12:06 | 52.30126 | 4.76338 | 18 ft | 16 kts | 58° |
| 2026-04-30 12:06 | 52.30188 | 4.76498 | 19 ft | 17 kts | 58° |
| 2026-04-30 12:06 | 52.30251 | 4.76662 | 17 ft | 18 kts | 57° |
| 2026-04-30 12:07 | 52.30321 | 4.76845 | 15 ft | 20 kts | 58° |
| 2026-04-30 12:07 | 52.30389 | 4.77024 | 13 ft | 19 kts | 58° |
| 2026-04-30 12:07 | 52.30447 | 4.77175 | 15 ft | 13 kts | 57° |
| 2026-04-30 12:07 | 52.30497 | 4.77303 | 15 ft | 14 kts | 58° |
| 2026-04-30 12:08 | 52.30549 | 4.77441 | 16 ft | 14 kts | 58° |
| 2026-04-30 12:08 | 52.30609 | 4.77556 | 18 ft | 14 kts | 35° |
| 2026-04-30 12:08 | 52.30704 | 4.77592 | 17 ft | 15 kts | 5° |
| 2026-04-30 12:08 | 52.30813 | 4.77604 | 17 ft | 17 kts | 4° |
| 2026-04-30 12:09 | 52.30936 | 4.77614 | 16 ft | 19 kts | 3° |
| 2026-04-30 12:09 | 52.31066 | 4.77627 | 17 ft | 18 kts | 3° |
| 2026-04-30 12:09 | 52.31194 | 4.77639 | 16 ft | 19 kts | 4° |
| 2026-04-30 12:09 | 52.31321 | 4.77651 | 19 ft | 17 kts | 3° |
| 2026-04-30 12:10 | 52.31438 | 4.77640 | 20 ft | 18 kts | 342° |
| 2026-04-30 12:10 | 52.31544 | 4.77506 | 16 ft | 20 kts | 308° |
| 2026-04-30 12:10 | 52.31577 | 4.77276 | 13 ft | 23 kts | 267° |
| 2026-04-30 12:10 | 52.31569 | 4.77023 | 14 ft | 22 kts | 266° |
| 2026-04-30 12:11 | 52.31562 | 4.76849 | 15 ft | 13 kts | 266° |
| 2026-04-30 12:11 | 52.31543 | 4.76711 | 17 ft | 13 kts | 231° |
| 2026-04-30 12:11 | 52.31460 | 4.76650 | 14 ft | 13 kts | 205° |
| 2026-04-30 12:11 | 52.31395 | 4.76584 | 12 ft | 8 kts | 213° |
| 2026-04-30 12:12 | 52.31363 | 4.76584 | 10 ft | 5 kts | 142° |
| 2026-04-30 12:12 | 52.31337 | 4.76631 | 9 ft | 5 kts | 126° |
| 2026-04-30 12:12 | 52.31325 | 4.76660 | 9 ft | 4 kts | 125° |
| 2026-04-30 12:12 | 52.31315 | 4.76683 | 8 ft | 0 kts | 124° |